sensor_id;sensor_type;location;lat;lon;timestamp;pressure;altitude;pressure_sealevel;temperature;humidity
51259;BME280;37327;54.254;18.504;2023-03-25T00:01:54;99537.64;;;5.39;100.00
51259;BME280;37327;54.254;18.504;2023-03-25T00:05:12;99541.18;;;5.39;100.00
51259;BME280;37327;54.254;18.504;2023-03-25T00:08:33;99531.46;;;5.38;100.00
51259;BME280;37327;54.254;18.504;2023-03-25T00:11:52;99523.09;;;5.41;100.00
51259;BME280;37327;54.254;18.504;2023-03-25T00:15:11;99511.03;;;5.45;100.00
51259;BME280;37327;54.254;18.504;2023-03-25T00:18:30;99509.68;;;5.49;100.00
51259;BME280;37327;54.254;18.504;2023-03-25T00:21:52;99508.32;;;5.53;100.00
51259;BME280;37327;54.254;18.504;2023-03-25T00:25:14;99506.13;;;5.57;100.00
51259;BME280;37327;54.254;18.504;2023-03-25T00:28:38;99514.66;;;5.61;100.00
51259;BME280;37327;54.254;18.504;2023-03-25T00:31:55;99504.61;;;5.63;100.00
51259;BME280;37327;54.254;18.504;2023-03-25T00:35:13;99498.23;;;5.64;100.00
51259;BME280;37327;54.254;18.504;2023-03-25T00:38:35;99491.22;;;5.63;100.00
51259;BME280;37327;54.254;18.504;2023-03-25T00:41:54;99489.37;;;5.63;100.00
51259;BME280;37327;54.254;18.504;2023-03-25T00:45:13;99485.49;;;5.66;100.00
51259;BME280;37327;54.254;18.504;2023-03-25T00:48:31;99478.32;;;5.66;100.00
51259;BME280;37327;54.254;18.504;2023-03-25T00:51:48;99468.43;;;5.67;100.00
51259;BME280;37327;54.254;18.504;2023-03-25T00:55:07;99466.58;;;5.67;100.00
51259;BME280;37327;54.254;18.504;2023-03-25T00:58:24;99469.91;;;5.69;100.00
51259;BME280;37327;54.254;18.504;2023-03-25T01:01:41;99460.40;;;5.67;100.00
51259;BME280;37327;54.254;18.504;2023-03-25T01:05:01;99466.58;;;5.67;100.00
51259;BME280;37327;54.254;18.504;2023-03-25T01:08:20;99459.20;;;5.69;100.00
51259;BME280;37327;54.254;18.504;2023-03-25T01:11:46;99451.00;;;5.71;100.00
51259;BME280;37327;54.254;18.504;2023-03-25T01:15:06;99456.69;;;5.68;100.00
51259;BME280;37327;54.254;18.504;2023-03-25T01:18:24;99446.52;;;5.63;100.00
51259;BME280;37327;54.254;18.504;2023-03-25T01:21:41;99450.41;;;5.61;100.00
51259;BME280;37327;54.254;18.504;2023-03-25T01:25:01;99449.54;;;5.60;100.00
51259;BME280;37327;54.254;18.504;2023-03-25T01:28:19;99453.08;;;5.61;100.00
51259;BME280;37327;54.254;18.504;2023-03-25T01:31:36;99455.09;;;5.59;100.00
51259;BME280;37327;54.254;18.504;2023-03-25T01:34:53;99454.90;;;5.60;100.00
51259;BME280;37327;54.254;18.504;2023-03-25T01:38:11;99463.78;;;5.61;100.00
51259;BME280;37327;54.254;18.504;2023-03-25T01:41:29;99476.15;;;5.62;100.00
51259;BME280;37327;54.254;18.504;2023-03-25T01:48:26;99485.00;;;5.62;100.00
51259;BME280;37327;54.254;18.504;2023-03-25T01:51:42;99476.15;;;5.62;100.00
51259;BME280;37327;54.254;18.504;2023-03-25T01:55:02;99462.09;;;5.60;100.00
51259;BME280;37327;54.254;18.504;2023-03-25T01:58:20;99462.47;;;5.57;100.00
51259;BME280;37327;54.254;18.504;2023-03-25T02:01:38;99466.31;;;5.54;100.00
51259;BME280;37327;54.254;18.504;2023-03-25T02:05:03;99469.16;;;5.52;100.00
51259;BME280;37327;54.254;18.504;2023-03-25T02:08:26;99469.35;;;5.51;100.00
51259;BME280;37327;54.254;18.504;2023-03-25T02:11:43;99469.52;;;5.49;100.00
51259;BME280;37327;54.254;18.504;2023-03-25T02:15:04;99474.05;;;5.49;100.00
51259;BME280;37327;54.254;18.504;2023-03-25T02:29:04;99458.81;;;5.49;100.00
51259;BME280;37327;54.254;18.504;2023-03-25T02:43:03;99427.77;;;5.63;100.00
51259;BME280;37327;54.254;18.504;2023-03-25T02:46:24;99422.09;;;5.66;100.00
51259;BME280;37327;54.254;18.504;2023-03-25T02:49:47;99428.92;;;5.69;100.00
51259;BME280;37327;54.254;18.504;2023-03-25T02:53:10;99428.55;;;5.72;100.00
51259;BME280;37327;54.254;18.504;2023-03-25T02:56:30;99419.35;;;5.74;100.00
51259;BME280;37327;54.254;18.504;2023-03-25T02:59:50;99417.16;;;5.78;100.00
51259;BME280;37327;54.254;18.504;2023-03-25T03:03:10;99409.40;;;5.83;100.00
51259;BME280;37327;54.254;18.504;2023-03-25T03:06:27;99413.39;;;5.87;100.00
51259;BME280;37327;54.254;18.504;2023-03-25T03:09:51;99410.37;;;5.90;100.00
51259;BME280;37327;54.254;18.504;2023-03-25T03:16:57;99403.98;;;5.91;100.00
51259;BME280;37327;54.254;18.504;2023-03-25T03:23:59;99408.00;;;5.96;100.00
51259;BME280;37327;54.254;18.504;2023-03-25T03:34:32;99405.08;;;6.05;100.00
51259;BME280;37327;54.254;18.504;2023-03-25T03:38:05;99407.58;;;6.07;100.00
51259;BME280;37327;54.254;18.504;2023-03-25T03:41:28;99405.56;;;6.09;100.00
51259;BME280;37327;54.254;18.504;2023-03-25T03:44:51;99405.39;;;6.10;100.00
51259;BME280;37327;54.254;18.504;2023-03-25T03:48:18;99408.06;;;6.10;100.00
51259;BME280;37327;54.254;18.504;2023-03-25T03:55:10;99401.40;;;6.06;100.00
51259;BME280;37327;54.254;18.504;2023-03-25T03:58:33;99405.45;;;6.02;100.00
51259;BME280;37327;54.254;18.504;2023-03-25T04:02:00;99407.96;;;6.04;100.00
51259;BME280;37327;54.254;18.504;2023-03-25T04:05:21;99399.79;;;5.97;100.00
51259;BME280;37327;54.254;18.504;2023-03-25T04:09:04;99403.32;;;5.98;100.00
51259;BME280;37327;54.254;18.504;2023-03-25T04:12:17;99396.11;;;5.98;100.00
51259;BME280;37327;54.254;18.504;2023-03-25T04:15:36;99401.81;;;5.95;100.00
51259;BME280;37327;54.254;18.504;2023-03-25T04:18:54;99411.02;;;5.92;100.00
51259;BME280;37327;54.254;18.504;2023-03-25T04:22:16;99415.89;;;5.89;100.00
51259;BME280;37327;54.254;18.504;2023-03-25T04:25:34;99412.91;;;5.84;100.00
51259;BME280;37327;54.254;18.504;2023-03-25T04:28:51;99418.16;;;5.77;100.00
51259;BME280;37327;54.254;18.504;2023-03-25T04:32:10;99419.57;;;5.65;100.00
51259;BME280;37327;54.254;18.504;2023-03-25T04:35:28;99426.14;;;5.54;100.00
51259;BME280;37327;54.254;18.504;2023-03-25T04:38:49;99422.04;;;5.43;100.00
51259;BME280;37327;54.254;18.504;2023-03-25T04:42:09;99422.75;;;5.37;100.00
51259;BME280;37327;54.254;18.504;2023-03-25T04:45:33;99429.79;;;5.30;100.00
51259;BME280;37327;54.254;18.504;2023-03-25T04:48:52;99422.95;;;5.27;100.00
51259;BME280;37327;54.254;18.504;2023-03-25T04:52:11;99425.80;;;5.26;100.00
51259;BME280;37327;54.254;18.504;2023-03-25T04:55:29;99427.98;;;5.22;100.00
51259;BME280;37327;54.254;18.504;2023-03-25T04:58:50;99429.83;;;5.22;100.00
51259;BME280;37327;54.254;18.504;2023-03-25T05:02:10;99429.83;;;5.22;100.00
51259;BME280;37327;54.254;18.504;2023-03-25T05:05:28;99426.13;;;5.23;100.00
51259;BME280;37327;54.254;18.504;2023-03-25T05:08:46;99431.48;;;5.23;100.00
51259;BME280;37327;54.254;18.504;2023-03-25T05:12:03;99436.01;;;5.22;100.00
51259;BME280;37327;54.254;18.504;2023-03-25T05:15:20;99441.84;;;5.26;100.00
51259;BME280;37327;54.254;18.504;2023-03-25T05:18:37;99440.33;;;5.31;100.00
51259;BME280;37327;54.254;18.504;2023-03-25T05:21:56;99446.96;;;5.44;100.00
51259;BME280;37327;54.254;18.504;2023-03-25T05:25:13;99457.35;;;5.70;100.00
51259;BME280;37327;54.254;18.504;2023-03-25T05:28:33;99453.69;;;6.02;100.00
51259;BME280;37327;54.254;18.504;2023-03-25T05:31:51;99444.24;;;6.52;100.00
51259;BME280;37327;54.254;18.504;2023-03-25T05:35:09;99451.71;;;7.10;100.00
51259;BME280;37327;54.254;18.504;2023-03-25T05:38:26;99446.41;;;7.46;100.00
51259;BME280;37327;54.254;18.504;2023-03-25T05:41:44;99457.97;;;7.62;100.00
51259;BME280;37327;54.254;18.504;2023-03-25T05:45:02;99453.28;;;7.85;100.00
51259;BME280;37327;54.254;18.504;2023-03-25T05:48:19;99462.46;;;8.56;100.00
51259;BME280;37327;54.254;18.504;2023-03-25T05:51:36;99459.14;;;10.26;100.00
51259;BME280;37327;54.254;18.504;2023-03-25T05:54:54;99454.54;;;11.85;100.00
51259;BME280;37327;54.254;18.504;2023-03-25T05:58:11;99464.41;;;13.37;97.90
51259;BME280;37327;54.254;18.504;2023-03-25T06:01:28;99454.02;;;14.32;88.84
51259;BME280;37327;54.254;18.504;2023-03-25T06:04:47;99463.44;;;15.42;87.25
51259;BME280;37327;54.254;18.504;2023-03-25T06:08:07;99466.31;;;16.16;80.51
51259;BME280;37327;54.254;18.504;2023-03-25T06:11:25;99462.79;;;16.95;76.74
51259;BME280;37327;54.254;18.504;2023-03-25T06:14:42;99470.35;;;17.10;69.31
51259;BME280;37327;54.254;18.504;2023-03-25T06:18:01;99470.66;;;17.31;70.80
51259;BME280;37327;54.254;18.504;2023-03-25T06:21:19;99467.83;;;17.65;68.91
51259;BME280;37327;54.254;18.504;2023-03-25T06:24:38;99468.72;;;17.70;66.94
51259;BME280;37327;54.254;18.504;2023-03-25T06:27:56;99468.02;;;18.02;64.46
51259;BME280;37327;54.254;18.504;2023-03-25T06:31:23;99460.81;;;18.18;64.69
51259;BME280;37327;54.254;18.504;2023-03-25T06:34:43;99464.02;;;18.37;61.85
51259;BME280;37327;54.254;18.504;2023-03-25T06:38:01;99455.31;;;18.40;60.65
51259;BME280;37327;54.254;18.504;2023-03-25T06:41:19;99456.09;;;18.08;59.33
51259;BME280;37327;54.254;18.504;2023-03-25T06:44:41;99460.53;;;17.70;59.20
51259;BME280;37327;54.254;18.504;2023-03-25T06:47:59;99462.70;;;17.68;60.06
51259;BME280;37327;54.254;18.504;2023-03-25T06:51:16;99462.40;;;17.26;59.36
51259;BME280;37327;54.254;18.504;2023-03-25T06:54:34;99469.77;;;16.41;60.54
51259;BME280;37327;54.254;18.504;2023-03-25T06:57:55;99476.24;;;15.94;62.50
51259;BME280;37327;54.254;18.504;2023-03-25T07:01:13;99471.57;;;15.54;62.47
51259;BME280;37327;54.254;18.504;2023-03-25T07:04:30;99485.43;;;14.81;63.82
51259;BME280;37327;54.254;18.504;2023-03-25T07:07:47;99475.96;;;14.30;65.90
51259;BME280;37327;54.254;18.504;2023-03-25T07:11:06;99470.69;;;14.05;67.79
51259;BME280;37327;54.254;18.504;2023-03-25T07:14:23;99474.09;;;14.00;69.86
51259;BME280;37327;54.254;18.504;2023-03-25T07:17:41;99473.24;;;14.00;70.20
51259;BME280;37327;54.254;18.504;2023-03-25T07:21:05;99464.39;;;13.74;70.15
51259;BME280;37327;54.254;18.504;2023-03-25T07:24:23;99470.74;;;13.31;71.71
51259;BME280;37327;54.254;18.504;2023-03-25T07:27:40;99471.84;;;13.23;72.91
51259;BME280;37327;54.254;18.504;2023-03-25T07:30:58;99475.12;;;13.32;73.91
51259;BME280;37327;54.254;18.504;2023-03-25T07:34:15;99475.01;;;13.20;73.56
51259;BME280;37327;54.254;18.504;2023-03-25T07:37:33;99460.67;;;12.95;74.21
51259;BME280;37327;54.254;18.504;2023-03-25T07:40:50;99461.03;;;12.98;75.61
51259;BME280;37327;54.254;18.504;2023-03-25T07:44:08;99455.78;;;13.03;76.58
51259;BME280;37327;54.254;18.504;2023-03-25T07:47:25;99460.71;;;12.88;75.97
51259;BME280;37327;54.254;18.504;2023-03-25T07:50:42;99454.70;;;12.61;75.96
51259;BME280;37327;54.254;18.504;2023-03-25T07:54:01;99463.40;;;12.38;76.75
51259;BME280;37327;54.254;18.504;2023-03-25T07:57:18;99447.15;;;12.13;77.66
51259;BME280;37327;54.254;18.504;2023-03-25T08:00:36;99448.52;;;11.90;78.41
51259;BME280;37327;54.254;18.504;2023-03-25T08:03:53;99446.61;;;11.97;80.67
51259;BME280;37327;54.254;18.504;2023-03-25T08:07:11;99449.62;;;12.46;81.67
51259;BME280;37327;54.254;18.504;2023-03-25T08:10:28;99439.60;;;13.15;80.99
51259;BME280;37327;54.254;18.504;2023-03-25T08:13:46;99441.00;;;13.61;80.18
51259;BME280;37327;54.254;18.504;2023-03-25T08:17:05;99438.41;;;13.67;77.85
51259;BME280;37327;54.254;18.504;2023-03-25T08:20:22;99439.33;;;13.60;78.29
51259;BME280;37327;54.254;18.504;2023-03-25T08:23:40;99443.64;;;13.50;77.56
51259;BME280;37327;54.254;18.504;2023-03-25T08:27:00;99441.08;;;13.36;78.17
51259;BME280;37327;54.254;18.504;2023-03-25T08:30:17;99446.03;;;13.39;79.46
51259;BME280;37327;54.254;18.504;2023-03-25T08:33:35;99451.59;;;13.26;79.52
51259;BME280;37327;54.254;18.504;2023-03-25T08:36:56;99452.37;;;13.33;80.43
51259;BME280;37327;54.254;18.504;2023-03-25T08:40:14;99456.06;;;13.39;80.55
51259;BME280;37327;54.254;18.504;2023-03-25T08:43:32;99452.63;;;13.25;79.43
51259;BME280;37327;54.254;18.504;2023-03-25T08:46:49;99448.64;;;13.09;79.77
51259;BME280;37327;54.254;18.504;2023-03-25T08:50:07;99450.66;;;12.95;80.34
51259;BME280;37327;54.254;18.504;2023-03-25T08:53:25;99445.66;;;12.92;81.84
51259;BME280;37327;54.254;18.504;2023-03-25T08:56:42;99442.03;;;12.80;82.88
51259;BME280;37327;54.254;18.504;2023-03-25T09:00:00;99441.45;;;12.78;83.34
51259;BME280;37327;54.254;18.504;2023-03-25T09:03:17;99442.93;;;12.74;83.84
51259;BME280;37327;54.254;18.504;2023-03-25T09:06:35;99442.15;;;12.67;84.72
51259;BME280;37327;54.254;18.504;2023-03-25T09:09:53;99442.93;;;12.49;84.86
51259;BME280;37327;54.254;18.504;2023-03-25T09:13:10;99435.39;;;12.25;84.95
51259;BME280;37327;54.254;18.504;2023-03-25T09:16:27;99431.13;;;12.11;85.89
51259;BME280;37327;54.254;18.504;2023-03-25T09:19:45;99430.12;;;12.05;86.73
51259;BME280;37327;54.254;18.504;2023-03-25T09:23:03;99433.64;;;12.06;87.19
51259;BME280;37327;54.254;18.504;2023-03-25T09:26:21;99439.24;;;12.11;88.02
51259;BME280;37327;54.254;18.504;2023-03-25T09:29:41;99433.38;;;12.14;88.12
51259;BME280;37327;54.254;18.504;2023-03-25T09:32:59;99435.78;;;12.29;88.55
51259;BME280;37327;54.254;18.504;2023-03-25T09:36:17;99435.48;;;12.44;89.03
51259;BME280;37327;54.254;18.504;2023-03-25T09:39:34;99438.34;;;12.49;88.69
51259;BME280;37327;54.254;18.504;2023-03-25T09:43:01;99423.91;;;12.55;88.58
51259;BME280;37327;54.254;18.504;2023-03-25T09:46:20;99431.82;;;12.57;87.95
51259;BME280;37327;54.254;18.504;2023-03-25T09:49:41;99420.77;;;12.58;87.54
51259;BME280;37327;54.254;18.504;2023-03-25T09:53:10;99423.08;;;12.80;86.27
51259;BME280;37327;54.254;18.504;2023-03-25T09:56:33;99417.67;;;12.98;85.40
51259;BME280;37327;54.254;18.504;2023-03-25T09:59:53;99422.45;;;13.21;85.40
51259;BME280;37327;54.254;18.504;2023-03-25T10:03:24;99411.77;;;13.45;84.94
51259;BME280;37327;54.254;18.504;2023-03-25T10:20:54;99391.57;;;13.90;81.78
51259;BME280;37327;54.254;18.504;2023-03-25T10:27:50;99373.99;;;14.46;80.33
51259;BME280;37327;54.254;18.504;2023-03-25T10:31:15;99376.48;;;14.36;78.66
51259;BME280;37327;54.254;18.504;2023-03-25T10:34:38;99365.07;;;14.03;78.24
51259;BME280;37327;54.254;18.504;2023-03-25T10:38:25;99376.04;;;13.67;77.47
51259;BME280;37327;54.254;18.504;2023-03-25T10:41:35;99395.22;;;13.35;79.21
51259;BME280;37327;54.254;18.504;2023-03-25T10:44:55;99442.03;;;12.80;78.02
51259;BME280;37327;54.254;18.504;2023-03-25T10:48:20;99455.95;;;12.01;81.86
51259;BME280;37327;54.254;18.504;2023-03-25T10:51:39;99466.60;;;11.31;86.03
51259;BME280;37327;54.254;18.504;2023-03-25T10:54:57;99456.50;;;10.86;88.74
51259;BME280;37327;54.254;18.504;2023-03-25T10:58:16;99447.17;;;10.49;91.05
51259;BME280;37327;54.254;18.504;2023-03-25T11:01:37;99438.85;;;10.31;93.67
51259;BME280;37327;54.254;18.504;2023-03-25T11:04:57;99435.94;;;10.32;95.96
51259;BME280;37327;54.254;18.504;2023-03-25T11:08:19;99428.28;;;10.49;98.13
51259;BME280;37327;54.254;18.504;2023-03-25T11:11:42;99425.55;;;10.76;99.46
51259;BME280;37327;54.254;18.504;2023-03-25T11:15:00;99411.42;;;10.94;98.70
51259;BME280;37327;54.254;18.504;2023-03-25T11:18:26;99407.84;;;11.06;99.45
51259;BME280;37327;54.254;18.504;2023-03-25T11:21:47;99397.66;;;11.09;98.49
51259;BME280;37327;54.254;18.504;2023-03-25T11:25:15;99399.34;;;11.10;99.09
51259;BME280;37327;54.254;18.504;2023-03-25T11:28:39;99384.15;;;11.09;99.75
51259;BME280;37327;54.254;18.504;2023-03-25T11:32:06;99374.62;;;10.99;99.19
51259;BME280;37327;54.254;18.504;2023-03-25T11:35:27;99370.68;;;10.95;100.00
51259;BME280;37327;54.254;18.504;2023-03-25T11:38:49;99361.02;;;11.26;100.00
51259;BME280;37327;54.254;18.504;2023-03-25T11:45:38;99360.56;;;12.13;100.00
51259;BME280;37327;54.254;18.504;2023-03-25T11:48:55;99377.02;;;12.36;99.58
51259;BME280;37327;54.254;18.504;2023-03-25T11:52:24;99372.64;;;12.60;98.08
51259;BME280;37327;54.254;18.504;2023-03-25T11:55:48;99362.94;;;12.71;94.78
51259;BME280;37327;54.254;18.504;2023-03-25T11:59:32;99368.27;;;12.59;92.88
51259;BME280;37327;54.254;18.504;2023-03-25T12:02:39;99363.10;;;12.58;93.66
51259;BME280;37327;54.254;18.504;2023-03-25T12:09:24;99357.91;;;12.75;92.16
51259;BME280;37327;54.254;18.504;2023-03-25T12:12:51;99362.08;;;12.77;92.12
51259;BME280;37327;54.254;18.504;2023-03-25T12:20:07;99361.31;;;12.70;89.29
51259;BME280;37327;54.254;18.504;2023-03-25T12:33:44;99352.77;;;12.48;89.47
51259;BME280;37327;54.254;18.504;2023-03-25T12:40:44;99348.76;;;12.76;89.13
51259;BME280;37327;54.254;18.504;2023-03-25T12:44:10;99338.52;;;12.96;87.65
51259;BME280;37327;54.254;18.504;2023-03-25T12:47:34;99335.65;;;13.10;86.48
51259;BME280;37327;54.254;18.504;2023-03-25T12:54:33;99336.56;;;13.03;85.23
51259;BME280;37327;54.254;18.504;2023-03-25T12:58:05;99326.55;;;13.04;85.03
51259;BME280;37327;54.254;18.504;2023-03-25T13:08:28;99326.48;;;13.11;82.12
51259;BME280;37327;54.254;18.504;2023-03-25T13:22:22;99326.97;;;12.20;86.22
51259;BME280;37327;54.254;18.504;2023-03-25T13:25:47;99325.34;;;12.19;86.34
51259;BME280;37327;54.254;18.504;2023-03-25T13:32:48;99314.83;;;12.30;86.21
51259;BME280;37327;54.254;18.504;2023-03-25T13:46:50;99330.24;;;12.04;86.01
51259;BME280;37327;54.254;18.504;2023-03-25T13:50:21;99343.21;;;11.89;86.79
51259;BME280;37327;54.254;18.504;2023-03-25T13:53:46;99326.73;;;11.65;86.54
51259;BME280;37327;54.254;18.504;2023-03-25T14:04:24;99365.20;;;11.22;89.51
51259;BME280;37327;54.254;18.504;2023-03-25T14:07:52;99364.05;;;10.91;88.79
51259;BME280;37327;54.254;18.504;2023-03-25T14:11:17;99381.15;;;10.52;87.69
51259;BME280;37327;54.254;18.504;2023-03-25T14:14:49;99363.09;;;10.25;87.56
51259;BME280;37327;54.254;18.504;2023-03-25T14:18:15;99364.95;;;10.18;89.00
51259;BME280;37327;54.254;18.504;2023-03-25T14:21:51;99355.80;;;10.19;88.90
51259;BME280;37327;54.254;18.504;2023-03-25T14:27:16;99345.00;;;10.66;89.98
51259;BME280;37327;54.254;18.504;2023-03-25T14:30:35;99345.18;;;10.84;88.54
51259;BME280;37327;54.254;18.504;2023-03-25T14:37:26;99337.99;;;11.17;88.16
51259;BME280;37327;54.254;18.504;2023-03-25T14:40:49;99334.91;;;11.13;86.33
51259;BME280;37327;54.254;18.504;2023-03-25T14:44:18;99332.66;;;11.03;85.98
51259;BME280;37327;54.254;18.504;2023-03-25T14:47:36;99332.05;;;10.95;86.21
51259;BME280;37327;54.254;18.504;2023-03-25T14:51:09;99327.10;;;10.85;86.34
51259;BME280;37327;54.254;18.504;2023-03-25T14:54:32;99334.17;;;10.79;86.10
51259;BME280;37327;54.254;18.504;2023-03-25T14:57:59;99326.52;;;10.76;86.04
51259;BME280;37327;54.254;18.504;2023-03-25T15:01:19;99329.42;;;10.75;86.54
51259;BME280;37327;54.254;18.504;2023-03-25T15:04:38;99330.04;;;10.77;86.74
51259;BME280;37327;54.254;18.504;2023-03-25T15:11:34;99322.14;;;10.75;85.92
51259;BME280;37327;54.254;18.504;2023-03-25T15:22:06;99328.34;;;10.89;85.84
51259;BME280;37327;54.254;18.504;2023-03-25T15:25:28;99332.88;;;10.95;84.84
51259;BME280;37327;54.254;18.504;2023-03-25T15:29:00;99332.46;;;10.98;84.86
51259;BME280;37327;54.254;18.504;2023-03-25T15:32:29;99320.84;;;10.98;84.85
51259;BME280;37327;54.254;18.504;2023-03-25T15:46:32;99324.77;;;10.95;86.32
51259;BME280;37327;54.254;18.504;2023-03-25T15:53:31;99339.55;;;10.93;86.20
51259;BME280;37327;54.254;18.504;2023-03-25T15:56:49;99341.01;;;10.89;85.84
51259;BME280;37327;54.254;18.504;2023-03-25T16:00:19;99346.20;;;10.83;85.41
51259;BME280;37327;54.254;18.504;2023-03-25T16:03:39;99361.37;;;10.78;86.29
51259;BME280;37327;54.254;18.504;2023-03-25T16:06:59;99371.55;;;10.76;86.58
51259;BME280;37327;54.254;18.504;2023-03-25T16:10:25;99362.42;;;10.70;85.97
51259;BME280;37327;54.254;18.504;2023-03-25T16:13:42;99371.80;;;10.61;87.35
51259;BME280;37327;54.254;18.504;2023-03-25T16:17:02;99365.78;;;10.52;87.45
51259;BME280;37327;54.254;18.504;2023-03-25T16:20:25;99368.70;;;10.44;87.63
51259;BME280;37327;54.254;18.504;2023-03-25T16:23:43;99364.14;;;10.38;87.82
51259;BME280;37327;54.254;18.504;2023-03-25T16:27:10;99369.55;;;10.31;87.61
51259;BME280;37327;54.254;18.504;2023-03-25T16:30:37;99371.16;;;10.19;88.22
51259;BME280;37327;54.254;18.504;2023-03-25T16:33:58;99368.88;;;10.09;87.92
51259;BME280;37327;54.254;18.504;2023-03-25T16:37:16;99369.48;;;9.98;88.00
51259;BME280;37327;54.254;18.504;2023-03-25T16:40:40;99373.43;;;9.88;87.81
51259;BME280;37327;54.254;18.504;2023-03-25T16:43:58;99374.88;;;9.84;88.09
51259;BME280;37327;54.254;18.504;2023-03-25T16:47:20;99373.20;;;9.77;88.05
51259;BME280;37327;54.254;18.504;2023-03-25T16:50:38;99374.02;;;9.71;88.44
51259;BME280;37327;54.254;18.504;2023-03-25T16:53:57;99371.91;;;9.66;88.50
51259;BME280;37327;54.254;18.504;2023-03-25T16:57:24;99361.95;;;9.60;89.62
51259;BME280;37327;54.254;18.504;2023-03-25T17:00:46;99365.47;;;9.54;90.51
51259;BME280;37327;54.254;18.504;2023-03-25T17:07:33;99366.67;;;9.44;90.75
51259;BME280;37327;54.254;18.504;2023-03-25T17:10:54;99373.50;;;9.40;91.81
51259;BME280;37327;54.254;18.504;2023-03-25T17:14:20;99370.38;;;9.37;91.15
51259;BME280;37327;54.254;18.504;2023-03-25T17:17:43;99370.57;;;9.35;90.89
51259;BME280;37327;54.254;18.504;2023-03-25T17:21:11;99382.16;;;9.29;91.21
51259;BME280;37327;54.254;18.504;2023-03-25T17:24:39;99380.68;;;9.20;91.18
51259;BME280;37327;54.254;18.504;2023-03-25T17:28:12;99385.39;;;9.11;90.20
51259;BME280;37327;54.254;18.504;2023-03-25T17:31:34;99384.94;;;9.01;89.74
51259;BME280;37327;54.254;18.504;2023-03-25T17:35:03;99389.00;;;8.90;89.50
51259;BME280;37327;54.254;18.504;2023-03-25T17:38:31;99391.66;;;8.83;89.48
51259;BME280;37327;54.254;18.504;2023-03-25T17:41:58;99396.35;;;8.75;89.90
51259;BME280;37327;54.254;18.504;2023-03-25T17:45:19;99387.23;;;8.69;89.38
51259;BME280;37327;54.254;18.504;2023-03-25T17:48:38;99397.11;;;8.62;89.27
51259;BME280;37327;54.254;18.504;2023-03-25T17:51:57;99400.60;;;8.56;89.32
51259;BME280;37327;54.254;18.504;2023-03-25T17:55:15;99403.21;;;8.49;89.48
51259;BME280;37327;54.254;18.504;2023-03-25T17:58:32;99405.20;;;8.40;89.66
51259;BME280;37327;54.254;18.504;2023-03-25T18:01:50;99416.09;;;8.32;89.88
51259;BME280;37327;54.254;18.504;2023-03-25T18:05:09;99413.33;;;8.25;89.97
51259;BME280;37327;54.254;18.504;2023-03-25T18:08:28;99413.10;;;8.20;90.00
51259;BME280;37327;54.254;18.504;2023-03-25T18:11:47;99411.16;;;8.14;89.96
51259;BME280;37327;54.254;18.504;2023-03-25T18:15:06;99412.57;;;8.10;90.17
51259;BME280;37327;54.254;18.504;2023-03-25T18:18:25;99419.76;;;8.03;91.15
51259;BME280;37327;54.254;18.504;2023-03-25T18:21:43;99411.37;;;7.91;91.65
51259;BME280;37327;54.254;18.504;2023-03-25T18:25:01;99418.34;;;7.85;92.22
51259;BME280;37327;54.254;18.504;2023-03-25T18:28:18;99426.77;;;7.82;93.08
51259;BME280;37327;54.254;18.504;2023-03-25T18:31:35;99416.60;;;7.78;93.96
51259;BME280;37327;54.254;18.504;2023-03-25T18:34:53;99418.83;;;7.74;94.88
51259;BME280;37327;54.254;18.504;2023-03-25T18:41:41;99402.84;;;7.66;95.51
51259;BME280;37327;54.254;18.504;2023-03-25T18:44:58;99392.86;;;7.60;96.10
51259;BME280;37327;54.254;18.504;2023-03-25T18:48:17;99392.77;;;7.53;96.34
51259;BME280;37327;54.254;18.504;2023-03-25T18:51:36;99401.40;;;7.48;96.56
51259;BME280;37327;54.254;18.504;2023-03-25T18:54:54;99400.48;;;7.41;96.96
51259;BME280;37327;54.254;18.504;2023-03-25T18:58:23;99396.33;;;7.39;97.39
51259;BME280;37327;54.254;18.504;2023-03-25T19:01:41;99391.25;;;7.29;97.65
51259;BME280;37327;54.254;18.504;2023-03-25T19:04:59;99385.78;;;7.22;98.13
51259;BME280;37327;54.254;18.504;2023-03-25T19:08:18;99383.02;;;7.16;98.45
51259;BME280;37327;54.254;18.504;2023-03-25T19:11:36;99378.23;;;7.11;98.84
51259;BME280;37327;54.254;18.504;2023-03-25T19:14:53;99380.45;;;7.07;99.06
51259;BME280;37327;54.254;18.504;2023-03-25T19:18:19;99378.70;;;7.00;99.37
51259;BME280;37327;54.254;18.504;2023-03-25T19:21:37;99384.34;;;6.90;99.68
51259;BME280;37327;54.254;18.504;2023-03-25T19:24:55;99385.73;;;6.86;100.00
51259;BME280;37327;54.254;18.504;2023-03-25T19:28:15;99388.60;;;6.84;100.00
51259;BME280;37327;54.254;18.504;2023-03-25T19:31:33;99385.45;;;6.81;100.00
51259;BME280;37327;54.254;18.504;2023-03-25T19:34:54;99381.12;;;6.80;100.00
51259;BME280;37327;54.254;18.504;2023-03-25T19:38:12;99378.96;;;6.75;100.00
51259;BME280;37327;54.254;18.504;2023-03-25T19:41:29;99382.86;;;6.72;100.00
51259;BME280;37327;54.254;18.504;2023-03-25T19:44:47;99380.54;;;6.69;100.00
51259;BME280;37327;54.254;18.504;2023-03-25T19:48:05;99380.27;;;6.64;100.00
51259;BME280;37327;54.254;18.504;2023-03-25T19:51:22;99384.98;;;6.62;100.00
51259;BME280;37327;54.254;18.504;2023-03-25T19:54:39;99386.55;;;6.57;100.00
51259;BME280;37327;54.254;18.504;2023-03-25T19:57:57;99382.36;;;6.54;100.00
51259;BME280;37327;54.254;18.504;2023-03-25T20:01:15;99372.38;;;6.48;100.00
51259;BME280;37327;54.254;18.504;2023-03-25T20:04:33;99371.73;;;6.46;100.00
51259;BME280;37327;54.254;18.504;2023-03-25T20:07:52;99371.26;;;6.42;100.00
51259;BME280;37327;54.254;18.504;2023-03-25T20:11:11;99368.96;;;6.39;100.00
51259;BME280;37327;54.254;18.504;2023-03-25T20:14:29;99370.52;;;6.33;100.00